createdAt,value
2023-05-07T00:01:40.359Z,95793.44
2023-05-07T00:03:43.266Z,95792.31
2023-05-07T00:05:46.128Z,95787.47
2023-05-07T00:07:48.964Z,95787.72
2023-05-07T00:09:51.913Z,95769.13
2023-05-07T00:11:56.078Z,95787.97
2023-05-07T00:13:58.871Z,95791.75
2023-05-07T00:16:01.670Z,95792.63
2023-05-07T00:18:04.673Z,95767.03
2023-05-07T00:20:07.895Z,95744.44
2023-05-07T00:22:11.302Z,95788.72
2023-05-07T00:24:14.121Z,95790.97
2023-05-07T00:26:16.932Z,95786.41
2023-05-07T00:28:21.828Z,95749.72
2023-05-07T00:30:24.556Z,95783.38
2023-05-07T00:32:27.365Z,95788.19
2023-05-07T00:34:30.554Z,95693.41
2023-05-07T00:36:33.661Z,95770.28
2023-05-07T00:38:36.457Z,95775.03
2023-05-07T00:40:39.254Z,95768.00
2023-05-07T00:42:42.198Z,95785.56
2023-05-07T00:44:46.468Z,95772.63
2023-05-07T00:46:50.904Z,95774.78
2023-05-07T00:48:55.705Z,95730.31
2023-05-07T00:50:59.081Z,95686.16
2023-05-07T00:53:02.788Z,95763.06
2023-05-07T00:55:08.241Z,95764.34
2023-05-07T00:57:12.434Z,95764.03
2023-05-07T00:59:15.699Z,95776.69
2023-05-07T01:01:19.953Z,95767.75
2023-05-07T01:03:23.107Z,95736.50
2023-05-07T01:05:28.354Z,95764.44
2023-05-07T01:07:32.587Z,95760.19
2023-05-07T01:09:37.127Z,95761.28
2023-05-07T01:11:40.305Z,95761.28
2023-05-07T01:13:44.065Z,95764.22
2023-05-07T01:15:47.290Z,95746.41
2023-05-07T01:17:51.506Z,95760.22
2023-05-07T01:20:01.302Z,95762.09
2023-05-07T01:22:08.590Z,95758.28
2023-05-07T01:24:21.800Z,95757.19
2023-05-07T01:26:24.912Z,95760.16
2023-05-07T01:28:27.766Z,95753.41
2023-05-07T01:30:36.795Z,95757.91
2023-05-07T01:32:45.974Z,95759.31
2023-05-07T01:34:51.384Z,95760.84
2023-05-07T01:36:56.312Z,95770.28
2023-05-07T01:39:00.558Z,95760.78
2023-05-07T01:41:05.835Z,95758.34
2023-05-07T01:43:08.959Z,95752.38
2023-05-07T01:45:13.813Z,95767.22
2023-05-07T01:47:18.146Z,95765.09
2023-05-07T01:49:21.177Z,95754.03
2023-05-07T01:51:24.404Z,95757.53
2023-05-07T01:53:29.654Z,95756.19
2023-05-07T01:55:32.488Z,95751.06
2023-05-07T01:57:36.723Z,95733.81
2023-05-07T01:59:39.504Z,95752.69
2023-05-07T02:01:42.296Z,95749.72
2023-05-07T02:03:46.997Z,95758.09
2023-05-07T02:05:56.985Z,95748.91
2023-05-07T02:08:09.686Z,95756.59
2023-05-07T02:10:13.108Z,95749.00
2023-05-07T02:12:16.121Z,95759.59
2023-05-07T02:14:21.112Z,95731.28
2023-05-07T02:16:24.715Z,95756.34
2023-05-07T02:18:28.096Z,95757.97
2023-05-07T02:20:30.257Z,95758.00
2023-05-07T02:22:33.213Z,95753.75
2023-05-07T02:24:35.986Z,95752.94
2023-05-07T02:26:38.749Z,95762.66
2023-05-07T02:28:41.771Z,95752.41
2023-05-07T02:30:46.098Z,95719.78
2023-05-07T02:32:48.922Z,95761.56
2023-05-07T02:34:52.485Z,95761.03
2023-05-07T02:36:55.279Z,95765.38
2023-05-07T02:39:01.200Z,95736.75
2023-05-07T02:41:04.754Z,95764.56
2023-05-07T02:43:07.791Z,95676.63
2023-05-07T02:45:11.837Z,95751.88
2023-05-07T02:47:17.425Z,95752.97
2023-05-07T02:49:21.960Z,95743.78
2023-05-07T02:51:26.132Z,95754.56
2023-05-07T02:53:31.015Z,95752.94
2023-05-07T02:55:33.852Z,95748.09
2023-05-07T02:57:36.639Z,95745.38
2023-05-07T02:59:39.695Z,95749.13
2023-05-07T03:01:44.963Z,95752.84
2023-05-07T03:03:50.184Z,95756.63
2023-05-07T03:05:53.103Z,95757.56
2023-05-07T03:07:55.949Z,95757.41
2023-05-07T03:09:58.736Z,95754.66
2023-05-07T03:12:02.779Z,95756.75
2023-05-07T03:14:05.910Z,95711.50
2023-05-07T03:16:08.949Z,95760.72
2023-05-07T03:18:12.774Z,95749.53
2023-05-07T03:20:17.446Z,95749.56
2023-05-07T03:22:20.361Z,95749.59
2023-05-07T03:24:23.364Z,95732.88
2023-05-07T03:26:26.369Z,95744.53
2023-05-07T03:28:29.329Z,95739.97
2023-05-07T03:30:36.380Z,95746.97
2023-05-07T03:32:39.306Z,95717.56
2023-05-07T03:34:45.644Z,95748.06
2023-05-07T03:36:50.745Z,95749.94
2023-05-07T03:38:55.108Z,95730.81
2023-05-07T03:41:01.113Z,95739.97
2023-05-07T03:43:04.795Z,95741.88
2023-05-07T03:45:10.611Z,95739.97
2023-05-07T03:47:16.262Z,95741.03
2023-05-07T03:49:20.023Z,95743.75
2023-05-07T03:51:22.860Z,95736.19
2023-05-07T03:53:27.063Z,95741.06
2023-05-07T03:55:30.103Z,95740.25
2023-05-07T03:57:36.102Z,95745.09
2023-05-07T03:59:38.931Z,95731.88
2023-05-07T04:01:42.646Z,95737.00
2023-05-07T04:03:50.827Z,95741.59
2023-05-07T04:05:53.831Z,95752.38
2023-05-07T04:07:57.654Z,95756.16
2023-05-07T04:10:08.429Z,95747.78
2023-05-07T04:12:11.254Z,95759.38
2023-05-07T04:14:14.569Z,95766.84
2023-05-07T04:16:17.476Z,95762.41
2023-05-07T04:18:21.004Z,95761.19
2023-05-07T04:20:24.438Z,95706.22
2023-05-07T04:22:33.904Z,95762.78
2023-05-07T04:24:37.190Z,95753.03
2023-05-07T04:26:42.283Z,95757.38
2023-05-07T04:28:45.891Z,95758.81
2023-05-07T04:30:48.715Z,95756.34
2023-05-07T04:32:51.550Z,95759.19
2023-05-07T04:34:54.511Z,95761.41
2023-05-07T04:37:00.528Z,95759.78
2023-05-07T04:39:05.079Z,95753.88
2023-05-07T04:41:08.823Z,95687.91
2023-05-07T04:43:17.109Z,95763.41
2023-05-07T04:45:25.093Z,95679.50
2023-05-07T04:47:30.740Z,95767.34
2023-05-07T04:49:34.632Z,95766.84
2023-05-07T04:51:37.563Z,95730.97
2023-05-07T04:53:40.814Z,95771.75
2023-05-07T04:55:43.852Z,95774.13
2023-05-07T04:57:46.636Z,95765.22
2023-05-07T04:59:52.876Z,95785.78
2023-05-07T05:01:57.187Z,95786.63
2023-05-07T05:04:01.190Z,95733.75
2023-05-07T05:06:04.300Z,95777.19
2023-05-07T05:08:10.143Z,95785.84
2023-05-07T05:10:17.391Z,95788.59
2023-05-07T05:12:20.909Z,95791.00
2023-05-07T05:14:23.701Z,95785.31
2023-05-07T05:16:29.085Z,95790.31
2023-05-07T05:18:31.873Z,95794.16
2023-05-07T05:20:34.643Z,95798.69
2023-05-07T05:22:37.427Z,95803.75
2023-05-07T05:24:40.396Z,95808.28
2023-05-07T05:26:43.199Z,95797.88
2023-05-07T05:28:46.026Z,95798.69
2023-05-07T05:30:48.811Z,95807.31
2023-05-07T05:32:53.459Z,95805.56
2023-05-07T05:34:57.473Z,95807.91
2023-05-07T05:37:01.321Z,95809.91
2023-05-07T05:39:04.240Z,95812.19
2023-05-07T05:41:07.061Z,95812.19
2023-05-07T05:43:09.889Z,95802.09
2023-05-07T05:45:14.078Z,95817.66
2023-05-07T05:47:17.137Z,95791.38
2023-05-07T05:49:25.187Z,95812.75
2023-05-07T05:51:28.478Z,95806.22
2023-05-07T05:53:31.317Z,95810.97
2023-05-07T05:55:34.913Z,95813.72
2023-05-07T05:57:38.118Z,95750.84
2023-05-07T05:59:41.097Z,95815.28
2023-05-07T06:01:44.539Z,95812.06
2023-05-07T06:03:48.140Z,95818.94
2023-05-07T06:05:53.166Z,95816.28
2023-05-07T06:07:58.424Z,95772.97
2023-05-07T06:10:03.513Z,95821.13
2023-05-07T06:12:08.932Z,95822.72
2023-05-07T06:14:12.625Z,95826.44
2023-05-07T06:16:16.519Z,95812.81
2023-05-07T06:18:20.126Z,95776.50
2023-05-07T06:20:23.442Z,95703.34
2023-05-07T06:22:28.552Z,95823.88
2023-05-07T06:24:31.853Z,95830.50
2023-05-07T06:26:34.571Z,95829.41
2023-05-07T06:28:37.596Z,95821.97
2023-05-07T06:30:44.875Z,95827.56
2023-05-07T06:32:47.747Z,95810.38
2023-05-07T06:34:51.564Z,95833.50
2023-05-07T06:36:55.487Z,95837.75
2023-05-07T06:39:09.392Z,95836.88
2023-05-07T06:41:12.924Z,95838.16
2023-05-07T06:43:16.077Z,95830.75
2023-05-07T06:45:26.385Z,95737.94
2023-05-07T06:47:31.081Z,95810.34
2023-05-07T06:49:34.277Z,95765.59
2023-05-07T06:51:37.080Z,95837.38
2023-05-07T06:53:40.474Z,95831.78
2023-05-07T06:55:47.216Z,95836.56
2023-05-07T06:57:51.431Z,95839.31
2023-05-07T06:59:55.276Z,95844.75
2023-05-07T07:01:58.580Z,95839.78
2023-05-07T07:04:01.570Z,95836.53
2023-05-07T07:06:06.435Z,95841.69
2023-05-07T07:08:09.246Z,95842.50
2023-05-07T07:10:13.287Z,95785.91
2023-05-07T07:12:17.469Z,95834.66
2023-05-07T07:14:20.330Z,95837.06
2023-05-07T07:16:26.634Z,95839.28
2023-05-07T07:18:29.547Z,95837.28
2023-05-07T07:20:32.746Z,95832.44
2023-05-07T07:22:35.792Z,95828.09
2023-05-07T07:24:39.172Z,95831.94
2023-05-07T07:26:44.242Z,95828.03
2023-05-07T07:28:48.526Z,95823.50
2023-05-07T07:30:54.704Z,95833.69
2023-05-07T07:33:03.267Z,95837.06
2023-05-07T07:35:10.005Z,95830.53
2023-05-07T07:37:13.726Z,95826.84
2023-05-07T07:39:16.586Z,95834.59
2023-05-07T07:41:20.004Z,95815.34
2023-05-07T07:43:23.888Z,95834.38
2023-05-07T07:46:19.191Z,95835.69
2023-05-07T07:48:23.419Z,95836.50
2023-05-07T07:50:42.836Z,95824.81
2023-05-07T07:52:47.140Z,95829.66
2023-05-07T07:54:52.599Z,95783.69
2023-05-07T07:56:55.607Z,95847.09
2023-05-07T07:58:59.786Z,95833.56
2023-05-07T08:01:02.532Z,95847.66
2023-05-07T08:03:06.303Z,95850.50
2023-05-07T08:05:14.671Z,95850.06
2023-05-07T08:07:19.442Z,95853.22
2023-05-07T08:09:24.009Z,95832.97
2023-05-07T08:11:28.409Z,95851.25
2023-05-07T08:13:32.408Z,95840.19
2023-05-07T08:15:36.067Z,95841.16
2023-05-07T08:17:39.414Z,95848.78
2023-05-07T08:19:42.367Z,95845.16
2023-05-07T08:21:49.813Z,95851.00
2023-05-07T08:23:53.649Z,95849.06
2023-05-07T08:25:56.890Z,95851.69
2023-05-07T08:28:00.148Z,95849.91
2023-05-07T08:30:03.152Z,95846.34
2023-05-07T08:32:06.497Z,95846.88
2023-05-07T08:34:10.213Z,95842.44
2023-05-07T08:36:16.625Z,95844.84
2023-05-07T08:38:20.972Z,95847.09
2023-05-07T08:40:26.863Z,95843.09
2023-05-07T08:42:33.259Z,95845.81
2023-05-07T08:44:36.973Z,95841.59
2023-05-07T08:46:41.709Z,95845.75
2023-05-07T08:48:45.181Z,95819.03
2023-05-07T08:50:51.219Z,95846.06
2023-05-07T08:52:54.348Z,95848.72
2023-05-07T08:55:01.267Z,95845.34
2023-05-07T08:57:04.141Z,95849.25
2023-05-07T08:59:09.519Z,95819.19
2023-05-07T09:01:16.242Z,95845.50
2023-05-07T09:03:21.502Z,95849.50
2023-05-07T09:05:27.430Z,95848.28
2023-05-07T09:07:31.670Z,95839.44
2023-05-07T09:09:35.846Z,95778.03
2023-05-07T09:11:41.855Z,95838.53
2023-05-07T09:13:45.141Z,95833.00
2023-05-07T09:15:48.335Z,95839.25
2023-05-07T09:17:52.266Z,95824.53
2023-05-07T09:19:55.412Z,95825.31
2023-05-07T09:22:02.006Z,95825.25
2023-05-07T09:24:08.309Z,95830.31
2023-05-07T09:26:16.421Z,95830.41
2023-05-07T09:28:20.711Z,95835.78
2023-05-07T09:30:23.615Z,95833.72
2023-05-07T09:32:28.148Z,95824.16
2023-05-07T09:34:34.109Z,95821.00
2023-05-07T09:36:37.820Z,95823.09
2023-05-07T09:38:41.349Z,95828.28
2023-05-07T09:40:44.621Z,95823.28
2023-05-07T09:42:50.581Z,95827.19
2023-05-07T09:44:55.206Z,95836.72
2023-05-07T09:47:02.732Z,95831.09
2023-05-07T09:49:19.773Z,95818.16
2023-05-07T09:51:28.110Z,95829.13
2023-05-07T09:53:32.902Z,95764.34
2023-05-07T09:55:39.528Z,95810.53
2023-05-07T09:57:43.956Z,95815.94
2023-05-07T09:59:48.989Z,95806.22
2023-05-07T10:01:59.328Z,95812.28
2023-05-07T10:04:05.237Z,95806.34
2023-05-07T10:06:10.713Z,95801.50
2023-05-07T10:08:14.716Z,95799.00
2023-05-07T10:10:19.374Z,95805.16
2023-05-07T10:12:23.491Z,95771.16
2023-05-07T10:14:27.273Z,95754.25
2023-05-07T10:16:30.964Z,95799.22
2023-05-07T10:18:35.302Z,95790.63
2023-05-07T10:20:47.454Z,95794.72
2023-05-07T10:22:52.983Z,95739.09
2023-05-07T10:25:07.793Z,95762.53
2023-05-07T10:27:15.321Z,95786.47
2023-05-07T10:29:39.154Z,95775.56
2023-05-07T10:31:57.083Z,95788.19
2023-05-07T10:34:03.609Z,95788.75
2023-05-07T10:36:08.976Z,95786.56
2023-05-07T10:38:12.552Z,95734.47
2023-05-07T10:40:18.804Z,95791.22
2023-05-07T10:42:21.918Z,95782.66
2023-05-07T10:44:29.873Z,95787.47
2023-05-07T10:46:36.870Z,95787.72
2023-05-07T10:49:12.339Z,95688.66
2023-05-07T10:51:24.317Z,95786.41
2023-05-07T10:53:43.812Z,95779.72
2023-05-07T10:55:54.245Z,95784.00
2023-05-07T10:58:31.824Z,95776.81
2023-05-07T11:00:48.753Z,95781.44
2023-05-07T11:03:09.647Z,95772.25
2023-05-07T11:05:23.089Z,95769.16
2023-05-07T11:07:36.331Z,95778.31
2023-05-07T11:09:59.430Z,95774.03
2023-05-07T11:13:03.486Z,95776.59
2023-05-07T11:15:17.718Z,95771.41
2023-05-07T11:17:20.958Z,95787.47
2023-05-07T11:19:50.426Z,95794.56
2023-05-07T11:21:56.484Z,95796.16
2023-05-07T11:24:16.559Z,95789.75
2023-05-07T11:26:32.105Z,95772.91
2023-05-07T11:28:40.265Z,95778.38
2023-05-07T11:30:44.314Z,95779.22
2023-05-07T11:32:50.460Z,95773.59
2023-05-07T11:34:54.654Z,95768.78
2023-05-07T11:37:00.754Z,95774.28
2023-05-07T11:39:32.544Z,95783.63
2023-05-07T11:41:36.795Z,95737.03
2023-05-07T11:43:40.999Z,95765.72
2023-05-07T11:45:43.986Z,95785.91
2023-05-07T11:47:46.790Z,95780.53
2023-05-07T11:49:50.602Z,95793.00
2023-05-07T11:51:53.390Z,95771.53
2023-05-07T11:53:57.731Z,95763.06
2023-05-07T11:56:00.553Z,95785.66
2023-05-07T11:58:03.302Z,95778.50
2023-05-07T12:00:07.317Z,95780.22
2023-05-07T12:02:16.635Z,95784.34
2023-05-07T12:04:22.591Z,95790.91
2023-05-07T12:06:25.487Z,95789.63
2023-05-07T12:08:28.328Z,95794.22
2023-05-07T12:10:32.546Z,95791.00
2023-05-07T12:12:40.711Z,95692.19
2023-05-07T12:14:44.671Z,95807.50
2023-05-07T12:16:47.692Z,95749.81
2023-05-07T12:18:51.001Z,95809.66
2023-05-07T12:20:54.046Z,95817.66
2023-05-07T12:22:57.156Z,95813.56
2023-05-07T12:25:00.829Z,95822.00
2023-05-07T12:27:05.107Z,95826.41
2023-05-07T12:29:08.000Z,95792.56
2023-05-07T12:31:11.521Z,95843.59
2023-05-07T12:33:18.783Z,95862.69
2023-05-07T12:35:28.747Z,95881.09
2023-05-07T12:37:32.565Z,95869.44
2023-05-07T12:39:35.614Z,95881.63
2023-05-07T12:41:53.832Z,95890.13
2023-05-07T12:43:59.801Z,95918.72
2023-05-07T12:46:05.466Z,95909.41
2023-05-07T12:48:08.391Z,95906.28
2023-05-07T12:50:11.247Z,95907.06
2023-05-07T12:52:14.722Z,95917.13
2023-05-07T12:54:29.976Z,95917.38
2023-05-07T12:56:33.182Z,95920.28
2023-05-07T12:58:37.219Z,95930.78
2023-05-07T13:00:41.429Z,95923.34
2023-05-07T13:02:45.987Z,95933.38
2023-05-07T13:04:48.866Z,95918.00
2023-05-07T13:06:51.612Z,95936.94
2023-05-07T13:08:55.051Z,95946.91
2023-05-07T13:10:58.774Z,95954.16
2023-05-07T13:13:01.536Z,95962.31
2023-05-07T13:15:04.750Z,95969.75
2023-05-07T13:17:08.846Z,95971.97
2023-05-07T13:19:12.013Z,95978.13
2023-05-07T13:21:15.098Z,95976.34
2023-05-07T13:23:17.891Z,95963.84
2023-05-07T13:25:20.930Z,95956.00
2023-05-07T13:27:23.674Z,95960.44
2023-05-07T13:29:30.909Z,95952.75
2023-05-07T13:31:34.899Z,95936.44
2023-05-07T13:33:39.045Z,95963.25
2023-05-07T13:35:41.840Z,95967.63
2023-05-07T13:37:44.605Z,95961.00
2023-05-07T13:39:47.306Z,95951.66
2023-05-07T13:41:50.249Z,95943.38
2023-05-07T13:43:53.038Z,95953.09
2023-05-07T13:45:55.979Z,95959.06
2023-05-07T13:47:59.201Z,95962.19
2023-05-07T13:50:03.372Z,95949.53
2023-05-07T13:52:06.560Z,95935.22
2023-05-07T13:54:09.343Z,95933.59
2023-05-07T13:56:12.385Z,95902.78
2023-05-07T13:58:15.153Z,95925.06
2023-05-07T14:00:18.156Z,95921.00
2023-05-07T14:02:21.046Z,95911.72
2023-05-07T14:04:23.971Z,95908.97
2023-05-07T14:06:28.074Z,95883.88
2023-05-07T14:08:31.763Z,95901.16
2023-05-07T14:10:37.104Z,95869.66
2023-05-07T14:12:39.836Z,95884.59
2023-05-07T14:14:42.631Z,95828.84
2023-05-07T14:16:45.941Z,95729.72
2023-05-07T14:18:49.771Z,95847.06
2023-05-07T14:20:52.563Z,95849.59
2023-05-07T14:22:58.192Z,95864.47
2023-05-07T14:25:14.406Z,95866.47
2023-05-07T14:27:19.704Z,95867.75
2023-05-07T14:29:23.948Z,95844.19
2023-05-07T14:31:27.866Z,95862.69
2023-05-07T14:33:30.699Z,95855.56
2023-05-07T14:35:33.501Z,95857.63
2023-05-07T14:37:39.238Z,95862.41
2023-05-07T14:39:43.697Z,95857.50
2023-05-07T14:41:46.505Z,95860.16
2023-05-07T14:43:50.931Z,95837.03
2023-05-07T14:45:54.315Z,95848.91
2023-05-07T14:47:57.241Z,95788.97
2023-05-07T14:50:02.140Z,95862.00
2023-05-07T14:52:07.174Z,95852.53
2023-05-07T14:54:10.106Z,95862.22
2023-05-07T14:56:14.391Z,95871.91
2023-05-07T14:58:17.286Z,95861.56
2023-05-07T15:00:20.695Z,95861.28
2023-05-07T15:02:23.659Z,95813.91
2023-05-07T15:04:26.783Z,95860.19
2023-05-07T15:06:30.282Z,95870.88
2023-05-07T15:08:33.108Z,95857.38
2023-05-07T15:10:41.844Z,95867.47
2023-05-07T15:12:46.176Z,95879.31
2023-05-07T15:14:49.022Z,95873.56
2023-05-07T15:16:51.902Z,95875.28
2023-05-07T15:18:54.731Z,95882.84
2023-05-07T15:21:00.392Z,95879.53
2023-05-07T15:23:03.755Z,95837.91
2023-05-07T15:25:06.939Z,95886.56
2023-05-07T15:27:09.724Z,95870.34
2023-05-07T15:29:13.869Z,95877.56
2023-05-07T15:31:17.581Z,95816.97
2023-05-07T15:33:20.401Z,95895.75
2023-05-07T15:35:23.419Z,95896.59
2023-05-07T15:37:26.178Z,95858.25
2023-05-07T15:39:28.983Z,95896.00
2023-05-07T15:41:31.900Z,95849.97
2023-05-07T15:43:34.682Z,95885.06
2023-05-07T15:45:42.898Z,95864.41
2023-05-07T15:47:45.858Z,95905.41
2023-05-07T15:49:48.640Z,95877.31
2023-05-07T15:51:51.893Z,95900.28
2023-05-07T15:53:54.680Z,95909.59
2023-05-07T15:55:57.523Z,95891.22
2023-05-07T15:58:00.827Z,95901.38
2023-05-07T16:00:06.860Z,95882.63
2023-05-07T16:02:16.281Z,95883.56
2023-05-07T16:04:19.162Z,95916.63
2023-05-07T16:06:21.958Z,95868.75
2023-05-07T16:08:24.795Z,95911.59
2023-05-07T16:10:27.873Z,95917.38
2023-05-07T16:12:30.632Z,95916.81
2023-05-07T16:14:33.553Z,95915.78
2023-05-07T16:16:38.051Z,95891.00
2023-05-07T16:18:42.196Z,95918.69
2023-05-07T16:20:45.026Z,95919.41
2023-05-07T16:22:47.836Z,95864.94
2023-05-07T16:24:50.733Z,95853.88
2023-05-07T16:26:53.589Z,95903.13
2023-05-07T16:28:56.373Z,95913.19
2023-05-07T16:30:59.178Z,95913.72
2023-05-07T16:33:02.053Z,95915.94
2023-05-07T16:35:07.622Z,95871.84
2023-05-07T16:37:10.716Z,95912.13
2023-05-07T16:39:13.473Z,95870.44
2023-05-07T16:41:16.211Z,95907.38
2023-05-07T16:43:19.034Z,95811.38
2023-05-07T16:45:21.874Z,95883.78
2023-05-07T16:47:24.755Z,95924.16
2023-05-07T16:49:27.529Z,95925.47
2023-05-07T16:51:32.108Z,95931.78
2023-05-07T16:53:35.704Z,95923.84
2023-05-07T16:55:39.423Z,95895.09
2023-05-07T16:57:42.236Z,95940.69
2023-05-07T16:59:45.008Z,95940.81
2023-05-07T17:01:47.827Z,95926.22
2023-05-07T17:03:50.774Z,95915.72
2023-05-07T17:05:53.813Z,95902.34
2023-05-07T17:07:58.059Z,95951.09
2023-05-07T17:10:00.817Z,95952.03
2023-05-07T17:12:03.858Z,95876.25
2023-05-07T17:14:06.641Z,95951.69
2023-05-07T17:16:09.741Z,95957.63
2023-05-07T17:18:12.822Z,95957.84
2023-05-07T17:20:15.794Z,95960.78
2023-05-07T17:22:18.549Z,95957.25
2023-05-07T17:24:22.633Z,95962.94
2023-05-07T17:26:25.558Z,95968.06
2023-05-07T17:28:28.291Z,95967.19
2023-05-07T17:30:31.150Z,95970.28
2023-05-07T17:32:35.151Z,95967.31
2023-05-07T17:34:39.325Z,95976.00
2023-05-07T17:36:42.174Z,95978.69
2023-05-07T17:38:44.911Z,95960.13
2023-05-07T17:40:49.488Z,95957.53
2023-05-07T17:42:54.333Z,95977.06
2023-05-07T17:44:58.199Z,95969.84
2023-05-07T17:47:01.008Z,95976.19
2023-05-07T17:49:03.753Z,95973.59
2023-05-07T17:51:06.579Z,95966.34
2023-05-07T17:53:09.859Z,95968.81
2023-05-07T17:55:12.825Z,95975.97
2023-05-07T17:57:17.099Z,95973.81
2023-05-07T17:59:20.018Z,95981.38
2023-05-07T18:01:22.866Z,95973.63
2023-05-07T18:03:25.790Z,95974.84
2023-05-07T18:05:28.927Z,95968.06
2023-05-07T18:07:31.733Z,95971.66
2023-05-07T18:09:34.927Z,95988.81
2023-05-07T18:11:37.831Z,95981.44
2023-05-07T18:13:41.985Z,95970.53
2023-05-07T18:15:46.344Z,95989.69
2023-05-07T18:17:49.129Z,95983.97
2023-05-07T18:19:54.770Z,96001.25
2023-05-07T18:21:58.317Z,95996.75
2023-05-07T18:24:01.097Z,96002.28
2023-05-07T18:26:07.074Z,96010.03
2023-05-07T18:28:11.173Z,96007.13
2023-05-07T18:30:15.813Z,95973.69
2023-05-07T18:32:18.662Z,96011.22
2023-05-07T18:34:21.453Z,96005.09
2023-05-07T18:36:26.882Z,96013.97
2023-05-07T18:38:29.685Z,96017.47
2023-05-07T18:40:32.435Z,96015.50
2023-05-07T18:42:37.075Z,95971.88
2023-05-07T18:44:40.326Z,96026.97
2023-05-07T18:46:45.630Z,96026.59
2023-05-07T18:48:48.384Z,96026.84
2023-05-07T18:50:51.535Z,96025.16
2023-05-07T18:52:54.348Z,96024.84
2023-05-07T18:54:57.221Z,96026.97
2023-05-07T18:57:00.037Z,96034.84
2023-05-07T18:59:02.867Z,96035.59
2023-05-07T19:01:08.136Z,95986.97
2023-05-07T19:03:13.563Z,96042.97
2023-05-07T19:05:18.399Z,96043.59
2023-05-07T19:07:21.154Z,96053.84
2023-05-07T19:09:24.064Z,96050.88
2023-05-07T19:11:26.936Z,96060.53
2023-05-07T19:13:29.809Z,96059.66
2023-05-07T19:15:32.563Z,96062.91
2023-05-07T19:17:36.286Z,96064.78
2023-05-07T19:19:40.487Z,95981.25
2023-05-07T19:21:43.214Z,96067.75
2023-05-07T19:23:46.611Z,96082.53
2023-05-07T19:25:49.589Z,96076.72
2023-05-07T19:27:52.353Z,96077.81
2023-05-07T19:29:55.108Z,96086.13
2023-05-07T19:32:00.762Z,96092.22
2023-05-07T19:34:03.657Z,96090.63
2023-05-07T19:36:07.991Z,96100.16
2023-05-07T19:38:10.992Z,96100.88
2023-05-07T19:40:14.843Z,96103.59
2023-05-07T19:42:17.588Z,96103.78
2023-05-07T19:44:20.370Z,96108.69
2023-05-07T19:46:23.232Z,96108.41
2023-05-07T19:48:26.040Z,96112.47
2023-05-07T19:50:28.946Z,96116.63
2023-05-07T19:52:33.031Z,96121.19
2023-05-07T19:54:36.905Z,96117.78
2023-05-07T19:56:39.940Z,96126.41
2023-05-07T19:58:42.913Z,96128.06
2023-05-07T20:00:45.702Z,96120.22
2023-05-07T20:02:51.153Z,96135.13
2023-05-07T20:04:55.110Z,96126.94
2023-05-07T20:06:58.028Z,96127.16
2023-05-07T20:09:02.066Z,96126.84
2023-05-07T20:11:05.153Z,96098.00
2023-05-07T20:13:07.929Z,96132.28
2023-05-07T20:15:11.809Z,96127.41
2023-05-07T20:17:14.666Z,96126.06
2023-05-07T20:19:18.540Z,96117.16
2023-05-07T20:21:21.294Z,96086.38
2023-05-07T20:23:24.205Z,96120.94
2023-05-07T20:25:28.411Z,96129.16
2023-05-07T20:27:33.974Z,96091.75
2023-05-07T20:29:36.668Z,96117.69
2023-05-07T20:31:39.378Z,96133.88
2023-05-07T20:33:42.122Z,96141.41
2023-05-07T20:35:45.083Z,96139.28
2023-05-07T20:37:47.776Z,96139.78
2023-05-07T20:39:50.528Z,96132.75
2023-05-07T20:41:54.741Z,96139.28
2023-05-07T20:43:58.023Z,96135.34
2023-05-07T20:46:01.487Z,96102.06
2023-05-07T20:48:04.654Z,96139.59
2023-05-07T20:50:08.179Z,96131.56
2023-05-07T20:52:10.941Z,96134.84
2023-05-07T20:54:14.618Z,96142.72
2023-05-07T20:56:17.394Z,96141.88
2023-05-07T20:58:25.062Z,96139.22
2023-05-07T21:00:28.031Z,96147.66
2023-05-07T21:02:30.762Z,96089.22
2023-05-07T21:04:33.927Z,96067.03
2023-05-07T21:06:36.755Z,96145.66
2023-05-07T21:08:39.514Z,96155.09
2023-05-07T21:10:42.687Z,96147.50
2023-05-07T21:12:45.738Z,96159.72
2023-05-07T21:14:50.301Z,96132.13
2023-05-07T21:16:53.603Z,96152.94
2023-05-07T21:18:56.450Z,96146.44
2023-05-07T21:20:59.324Z,96150.75
2023-05-07T21:23:02.370Z,96147.22
2023-05-07T21:25:05.933Z,96147.50
2023-05-07T21:27:12.266Z,96131.63
2023-05-07T21:29:15.081Z,96146.69
2023-05-07T21:31:20.338Z,96053.56
2023-05-07T21:33:23.179Z,96151.97
2023-05-07T21:35:25.959Z,96156.31
2023-05-07T21:37:28.711Z,96131.16
2023-05-07T21:39:31.621Z,96131.41
2023-05-07T21:41:34.400Z,96158.94
2023-05-07T21:43:37.186Z,96158.44
2023-05-07T21:45:40.890Z,96147.31
2023-05-07T21:47:45.049Z,96158.94
2023-05-07T21:49:48.038Z,96156.78
2023-05-07T21:51:50.801Z,96152.97
2023-05-07T21:53:53.582Z,96156.75
2023-05-07T21:55:56.365Z,96147.06
2023-05-07T21:58:05.397Z,96137.84
2023-05-07T22:00:10.383Z,96159.72
2023-05-07T22:02:13.331Z,96160.84
2023-05-07T22:04:17.470Z,96160.28
2023-05-07T22:06:21.844Z,96158.09
2023-05-07T22:08:24.696Z,96151.34
2023-05-07T22:10:27.556Z,96155.16
2023-05-07T22:12:30.311Z,96152.97
2023-05-07T22:14:33.638Z,96158.41
2023-05-07T22:16:36.570Z,96147.84
2023-05-07T22:18:40.940Z,96154.31
2023-05-07T22:20:45.048Z,96151.88
2023-05-07T22:22:50.258Z,96113.44
2023-05-07T22:24:54.813Z,96162.19
2023-05-07T22:26:57.585Z,96168.13
2023-05-07T22:29:00.428Z,96071.59
2023-05-07T22:31:03.167Z,96158.91
2023-05-07T22:33:05.990Z,96142.69
2023-05-07T22:35:09.600Z,96158.91
2023-05-07T22:37:13.690Z,96164.31
2023-05-07T22:39:16.468Z,96162.47
2023-05-07T22:41:19.309Z,96101.34
2023-05-07T22:43:22.111Z,96168.13
2023-05-07T22:45:24.877Z,96165.94
2023-05-07T22:47:29.815Z,96163.25
2023-05-07T22:49:34.888Z,96067.59
2023-05-07T22:51:37.626Z,96166.53
2023-05-07T22:53:41.772Z,96158.94
2023-05-07T22:55:44.506Z,96137.81
2023-05-07T22:57:47.238Z,96161.66
2023-05-07T22:59:49.981Z,96159.75
2023-05-07T23:01:52.842Z,96162.44
2023-05-07T23:03:55.597Z,96156.78
2023-05-07T23:05:58.436Z,96160.31
2023-05-07T23:08:01.215Z,96157.88
2023-05-07T23:10:06.247Z,96151.34
2023-05-07T23:12:09.633Z,96157.34
2023-05-07T23:14:12.384Z,96153.25
2023-05-07T23:16:15.161Z,96130.22
2023-05-07T23:18:18.782Z,96156.50
2023-05-07T23:20:21.481Z,96145.94
2023-05-07T23:22:24.143Z,96156.53
2023-05-07T23:24:27.031Z,96100.38
2023-05-07T23:26:31.193Z,96146.53
2023-05-07T23:28:33.965Z,96153.00
2023-05-07T23:30:36.715Z,96152.50
2023-05-07T23:32:39.491Z,96059.59
2023-05-07T23:34:42.214Z,96140.94
2023-05-07T23:36:44.910Z,96152.56
2023-05-07T23:38:47.887Z,96144.72
2023-05-07T23:40:50.620Z,96147.69
2023-05-07T23:42:54.620Z,96150.94
2023-05-07T23:44:57.338Z,96120.38
2023-05-07T23:47:00.123Z,96146.31
2023-05-07T23:49:02.920Z,96120.63
2023-05-07T23:51:05.606Z,96148.47
2023-05-07T23:53:08.359Z,96094.69
2023-05-07T23:55:11.252Z,96106.06
2023-05-07T23:57:14.266Z,96147.63
2023-05-07T23:59:18.405Z,96149.22
